Time;durP1;ratioP1;P1;durP2;ratioP2;P2;SDS_P1;SDS_P2;PMS_P1;PMS_P2;Temp;Humidity;BMP_temperature;BMP_pressure;BME280_temperature;BME280_humidity;BME280_pressure;Samples;Min_cycle;Max_cycle;Signal;HPM_P1;HPM_P2
2022/12/31 00:04:13;;;;;;;173.40;91.30;;;2.00;99.90;;;;;;10401012;28;20034;-79
2022/12/31 00:09:13;;;;;;;171.23;89.40;;;2.10;99.90;;;;;;10402869;28;20543;-76
2022/12/31 00:14:14;;;;;;;178.53;92.10;;;2.10;99.90;;;;;;10402011;28;20048;-77
2022/12/31 00:19:14;;;;;;;204.13;102.57;;;2.20;99.90;;;;;;10401884;28;20041;-76
2022/12/31 00:24:15;;;;;;;190.13;100.30;;;2.10;99.90;;;;;;10401505;28;20034;-76
2022/12/31 00:29:15;;;;;;;178.17;91.00;;;2.00;99.90;;;;;;10391691;28;20026;-76
2022/12/31 00:34:16;;;;;;;179.07;92.57;;;2.10;99.90;;;;;;10397816;28;20033;-76
2022/12/31 00:39:16;;;;;;;159.80;85.80;;;2.10;99.90;;;;;;10401280;28;20095;-76
2022/12/31 00:44:17;;;;;;;164.93;83.63;;;2.20;99.90;;;;;;10401147;28;20029;-76
2022/12/31 00:49:18;;;;;;;166.17;83.50;;;2.10;99.90;;;;;;10394804;28;20465;-76
2022/12/31 00:54:18;;;;;;;172.17;87.53;;;2.10;99.90;;;;;;10395651;28;20540;-76
2022/12/31 00:59:19;;;;;;;157.97;84.87;;;2.20;99.90;;;;;;10399284;28;20046;-76
2022/12/31 01:04:20;;;;;;;164.47;86.70;;;2.20;99.90;;;;;;10397511;28;20621;-76
2022/12/31 01:09:21;;;;;;;165.33;89.13;;;2.20;99.90;;;;;;10390202;28;20033;-78
2022/12/31 01:14:21;;;;;;;176.27;90.33;;;2.10;99.90;;;;;;10398498;28;20036;-77
2022/12/31 01:19:25;;;;;;;164.93;85.90;;;2.10;99.90;;;;;;10394027;28;20045;-76
2022/12/31 01:24:26;;;;;;;150.47;80.23;;;2.20;99.90;;;;;;10399029;28;20412;-76
2022/12/31 01:29:27;;;;;;;100.50;50.70;;;2.40;99.90;;;;;;10396339;28;20033;-78
2022/12/31 01:34:27;;;;;;;85.83;44.27;;;2.90;99.90;;;;;;10369763;28;20107;-76
2022/12/31 01:39:28;;;;;;;72.10;37.63;;;3.40;99.90;;;;;;10366722;28;20061;-76
2022/12/31 01:44:28;;;;;;;76.13;38.33;;;3.80;99.90;;;;;;10398273;28;20032;-77
2022/12/31 01:49:43;;;;;;;76.47;39.57;;;4.10;99.90;;;;;;10397463;28;20037;-77
2022/12/31 01:54:49;;;;;;;76.40;39.33;;;4.20;99.90;;;;;;10398526;28;20045;-77
2022/12/31 01:59:50;;;;;;;72.28;37.05;;;4.40;99.90;;;;;;10398250;28;20037;-77
2022/12/31 02:04:54;;;;;;;97.57;45.87;;;4.50;99.90;;;;;;10397687;28;20018;-77
2022/12/31 02:09:54;;;;;;;90.00;47.87;;;4.40;99.90;;;;;;10403682;28;20029;-77
2022/12/31 02:14:55;;;;;;;73.07;37.43;;;4.30;99.90;;;;;;10405353;28;20080;-77
2022/12/31 02:20:17;;;;;;;82.30;39.73;;;4.30;99.90;;;;;;10404636;28;20132;-77
2022/12/31 02:25:35;;;;;;;73.00;35.53;;;4.50;99.90;;;;;;10404822;28;20029;-78
2022/12/31 02:30:36;;;;;;;62.63;32.63;;;4.60;99.90;;;;;;10401255;28;20022;-78
2022/12/31 02:35:55;;;;;;;75.60;36.07;;;4.80;99.90;;;;;;10406292;28;20025;-77
2022/12/31 02:40:56;;;;;;;76.87;39.27;;;4.80;99.90;;;;;;10405197;28;20115;-77
2022/12/31 02:46:12;;;;;;;82.67;40.53;;;4.80;99.90;;;;;;10403505;28;20044;-77
2022/12/31 02:51:25;;;;;;;91.63;44.20;;;4.80;99.90;;;;;;10393043;28;20040;-77
2022/12/31 02:56:37;;;;;;;74.60;36.70;;;4.80;99.90;;;;;;10399275;28;20037;-76
2022/12/31 03:07:07;;;;;;;68.63;30.77;;;4.80;99.90;;;;;;10404574;28;20041;-76
2022/12/31 03:17:43;;;;;;;58.10;27.33;;;5.00;99.90;;;;;;10384816;28;20037;-78
2022/12/31 03:22:43;;;;;;;63.80;29.13;;;5.00;99.90;;;;;;10401134;28;20037;-77
2022/12/31 03:27:45;;;;;;;63.10;29.33;;;5.10;99.90;;;;;;10399520;28;20716;-76
2022/12/31 03:32:48;;;;;;;48.30;21.87;;;5.20;99.90;;;;;;10400298;28;20041;-79
2022/12/31 03:37:50;;;;;;;47.50;20.87;;;5.40;99.90;;;;;;10403504;28;20133;-78
2022/12/31 03:42:50;;;;;;;51.80;22.93;;;5.50;99.90;;;;;;10401813;28;20476;-77
2022/12/31 03:47:51;;;;;;;43.30;20.90;;;5.60;99.90;;;;;;10401749;28;20029;-77
2022/12/31 03:52:53;;;;;;;40.83;19.53;;;5.70;99.90;;;;;;10401610;28;20033;-77
2022/12/31 03:57:53;;;;;;;34.93;18.50;;;5.80;99.90;;;;;;10402447;28;20033;-77
2022/12/31 04:02:54;;;;;;;39.00;18.03;;;5.80;99.90;;;;;;10402023;28;20515;-76
2022/12/31 04:07:55;;;;;;;39.27;17.50;;;5.90;99.90;;;;;;10394511;28;20030;-77
2022/12/31 04:12:55;;;;;;;40.27;20.17;;;6.00;99.90;;;;;;10403021;28;20152;-77
2022/12/31 04:17:56;;;;;;;38.27;18.10;;;6.10;99.90;;;;;;10401704;28;20045;-77
2022/12/31 04:22:56;;;;;;;41.03;18.13;;;6.10;99.90;;;;;;10401422;28;20030;-77
2022/12/31 04:27:57;;;;;;;42.33;20.50;;;6.10;99.90;;;;;;10401571;28;20034;-79
2022/12/31 04:32:58;;;;;;;40.30;18.87;;;6.20;99.90;;;;;;10400095;28;20045;-77
2022/12/31 04:37:58;;;;;;;34.63;17.20;;;6.20;99.90;;;;;;10386253;28;20116;-77
2022/12/31 04:42:59;;;;;;;33.97;17.00;;;6.20;99.90;;;;;;10388838;28;20053;-76
2022/12/31 04:47:59;;;;;;;33.30;15.93;;;6.30;99.90;;;;;;10400621;28;20396;-76
2022/12/31 04:53:00;;;;;;;35.63;17.23;;;6.30;99.90;;;;;;10402427;28;20041;-77
2022/12/31 04:58:00;;;;;;;39.53;18.13;;;6.40;99.90;;;;;;10400767;28;20662;-77
2022/12/31 05:03:01;;;;;;;33.77;15.73;;;6.50;99.90;;;;;;10399893;28;20041;-77
2022/12/31 05:08:01;;;;;;;30.00;15.87;;;6.50;99.90;;;;;;10399592;28;20053;-80
2022/12/31 05:13:02;;;;;;;37.17;17.27;;;6.60;99.90;;;;;;10400810;28;20489;-79
2022/12/31 05:18:03;;;;;;;28.37;13.00;;;6.70;99.90;;;;;;10398038;28;20481;-76
2022/12/31 05:23:03;;;;;;;29.40;13.27;;;6.70;99.90;;;;;;10390373;28;20029;-79
2022/12/31 05:28:04;;;;;;;29.60;13.70;;;6.90;99.90;;;;;;10397313;28;20103;-78
2022/12/31 05:33:04;;;;;;;31.53;12.70;;;6.90;99.90;;;;;;10397816;28;20037;-75
2022/12/31 05:38:05;;;;;;;27.47;13.30;;;7.00;99.90;;;;;;10399039;28;20042;-78
2022/12/31 05:43:06;;;;;;;25.93;11.90;;;7.00;99.90;;;;;;10395193;28;20054;-77
2022/12/31 05:48:07;;;;;;;24.17;12.10;;;7.10;99.90;;;;;;10401046;28;20567;-76
2022/12/31 05:53:07;;;;;;;27.57;13.20;;;7.20;99.90;;;;;;10401254;28;20030;-77
2022/12/31 05:58:08;;;;;;;28.63;14.27;;;7.20;99.90;;;;;;10406699;28;20044;-76
2022/12/31 06:03:08;;;;;;;32.70;15.50;;;7.30;99.90;;;;;;10403001;28;20037;-77
2022/12/31 06:08:10;;;;;;;30.07;14.87;;;7.30;99.90;;;;;;10407380;28;20029;-76
2022/12/31 06:13:11;;;;;;;25.80;11.10;;;7.30;99.90;;;;;;10400521;28;20404;-77
2022/12/31 06:18:11;;;;;;;25.07;11.90;;;7.30;99.90;;;;;;10397377;28;20053;-77
2022/12/31 06:23:12;;;;;;;24.07;11.60;;;7.40;99.90;;;;;;10406595;28;20029;-76
2022/12/31 06:28:12;;;;;;;34.90;16.17;;;7.50;99.90;;;;;;10405055;28;20864;-76
2022/12/31 06:33:13;;;;;;;27.23;12.67;;;7.40;99.90;;;;;;10397997;28;20021;-78
2022/12/31 06:38:13;;;;;;;26.83;12.37;;;7.50;99.90;;;;;;10406009;28;20575;-77
2022/12/31 06:43:14;;;;;;;49.23;21.97;;;7.40;99.90;;;;;;10403754;28;20174;-79
2022/12/31 06:48:15;;;;;;;33.97;17.57;;;7.40;99.90;;;;;;10404940;28;20422;-76
2022/12/31 06:53:15;;;;;;;33.20;16.80;;;7.40;99.90;;;;;;10404379;28;20116;-76
2022/12/31 06:58:17;;;;;;;31.40;15.93;;;7.50;99.90;;;;;;10401082;28;20037;-75
2022/12/31 07:03:36;;;;;;;26.80;11.90;;;7.60;99.90;;;;;;10400212;28;20721;-76
2022/12/31 07:08:53;;;;;;;26.50;11.77;;;7.70;99.90;;;;;;10403288;28;20056;-76
2022/12/31 07:14:03;;;;;;;30.73;13.93;;;7.80;99.90;;;;;;10404314;28;20703;-76
2022/12/31 07:19:28;;;;;;;30.90;12.33;;;7.90;99.90;;;;;;10398642;28;20041;-79
2022/12/31 07:24:29;;;;;;;23.47;10.93;;;8.00;99.90;;;;;;10402574;28;20040;-76
2022/12/31 07:29:42;;;;;;;26.83;12.30;;;8.10;99.90;;;;;;10402647;28;20529;-78
2022/12/31 07:35:00;;;;;;;24.63;10.43;;;8.20;99.90;;;;;;10403505;28;20033;-77
2022/12/31 07:40:34;;;;;;;16.00;8.00;;;8.20;99.90;;;;;;10388738;28;20108;-77
2022/12/31 07:46:09;;;;;;;21.00;9.40;;;8.20;99.90;;;;;;10393073;28;20061;-77
2022/12/31 07:51:10;;;;;;;16.73;8.47;;;8.30;99.90;;;;;;10391714;28;20111;-78
2022/12/31 07:56:11;;;;;;;17.23;8.07;;;8.20;99.90;;;;;;10386131;28;20033;-77
2022/12/31 08:01:15;;;;;;;13.73;6.57;;;8.30;99.90;;;;;;10400101;28;20498;-77
2022/12/31 08:06:32;;;;;;;14.57;6.50;;;8.40;99.90;;;;;;10397877;28;20030;-77
2022/12/31 08:11:56;;;;;;;13.53;6.63;;;8.50;99.90;;;;;;10401426;28;20465;-77
2022/12/31 08:16:57;;;;;;;13.40;6.70;;;8.60;99.90;;;;;;10402522;28;20029;-76
2022/12/31 08:22:16;;;;;;;14.37;6.77;;;8.80;99.90;;;;;;10400461;28;20033;-76
2022/12/31 08:27:40;;;;;;;15.13;8.00;;;8.80;99.90;;;;;;10399744;28;20103;-76
2022/12/31 08:32:50;;;;;;;16.13;6.93;;;8.90;99.90;;;;;;10395477;28;20504;-76
2022/12/31 08:38:08;;;;;;;12.60;6.93;;;9.00;99.90;;;;;;10401718;28;20124;-78
2022/12/31 08:43:27;;;;;;;17.43;7.07;;;9.20;99.90;;;;;;10397848;28;20057;-80
2022/12/31 08:48:41;;;;;;;12.57;6.60;;;9.50;99.90;;;;;;10395857;28;20758;-79
2022/12/31 08:53:42;;;;;;;14.30;6.97;;;9.60;99.90;;;;;;10400293;28;20519;-76
2022/12/31 08:58:54;;;;;;;13.13;6.53;;;9.40;99.90;;;;;;10400284;28;20052;-79
2022/12/31 09:03:58;;;;;;;14.53;6.93;;;9.30;99.90;;;;;;10396266;28;20029;-76
2022/12/31 09:09:07;;;;;;;13.23;7.60;;;9.40;99.90;;;;;;10400599;28;20063;-76
2022/12/31 09:14:42;;;;;;;17.27;8.67;;;9.50;99.90;;;;;;10395473;28;20033;-78
2022/12/31 09:19:42;;;;;;;14.03;7.83;;;9.50;99.90;;;;;;10394021;28;20045;-76
2022/12/31 09:24:43;;;;;;;20.43;8.47;;;9.60;99.90;;;;;;10405546;28;20033;-77
2022/12/31 09:29:43;;;;;;;17.67;9.27;;;9.70;99.90;;;;;;10393240;28;20040;-76
2022/12/31 09:34:56;;;;;;;17.75;9.38;;;9.80;99.90;;;;;;10408352;28;20056;-77
2022/12/31 09:40:04;;;;;;;15.25;7.88;;;9.90;99.90;;;;;;10406949;28;20069;-81
2022/12/31 09:45:42;;;;;;;17.92;8.75;;;10.10;99.90;;;;;;10405944;28;20389;-80
2022/12/31 09:51:07;;;;;;;14.88;8.18;;;10.20;99.90;;;;;;10391036;28;20041;-80
2022/12/31 09:56:30;;;;;;;16.37;7.93;;;10.10;99.90;;;;;;10401250;28;20460;-78
2022/12/31 10:01:44;;;;;;;15.40;8.27;;;10.10;99.90;;;;;;10396874;28;20121;-77
2022/12/31 10:06:53;;;;;;;14.30;7.78;;;10.10;99.90;;;;;;10385420;28;20017;-77
2022/12/31 10:12:04;;;;;;;15.55;8.48;;;10.10;99.90;;;;;;10389633;28;20041;-77
2022/12/31 10:17:24;;;;;;;13.80;7.78;;;10.20;99.90;;;;;;10392577;28;20033;-78
2022/12/31 10:22:40;;;;;;;11.05;6.68;;;10.50;99.90;;;;;;10403172;28;20034;-76
2022/12/31 10:27:48;;;;;;;11.95;6.50;;;10.60;99.90;;;;;;10391710;28;20087;-76
2022/12/31 10:33:13;;;;;;;13.05;6.90;;;10.70;99.90;;;;;;10396822;28;20033;-77
2022/12/31 10:38:23;;;;;;;19.30;9.73;;;10.70;99.90;;;;;;10384975;28;20045;-77
2022/12/31 10:43:33;;;;;;;24.05;11.85;;;10.70;99.90;;;;;;10380522;28;20061;-79
2022/12/31 10:48:53;;;;;;;12.52;7.40;;;10.70;99.90;;;;;;10386687;28;20045;-77
2022/12/31 10:54:12;;;;;;;17.10;9.52;;;10.80;99.90;;;;;;10372468;28;20113;-77
2022/12/31 10:59:58;;;;;;;20.30;11.25;;;11.00;99.90;;;;;;10376515;28;20133;-77
2022/12/31 11:05:35;;;;;;;12.88;5.97;;;11.10;99.90;;;;;;10398044;28;20058;-78
2022/12/31 11:10:51;;;;;;;9.70;5.57;;;11.20;99.90;;;;;;10398321;28;20097;-77
2022/12/31 11:16:06;;;;;;;8.68;5.63;;;11.30;99.90;;;;;;10396816;28;20036;-78
2022/12/31 11:21:44;;;;;;;12.45;6.93;;;11.40;99.90;;;;;;10386371;28;20037;-78
2022/12/31 11:27:16;;;;;;;48.63;20.23;;;11.40;99.90;;;;;;10397273;28;20083;-76
2022/12/31 11:32:34;;;;;;;16.27;8.85;;;11.40;99.90;;;;;;10374871;28;20038;-76
2022/12/31 11:37:44;;;;;;;10.63;5.43;;;11.50;99.90;;;;;;10400507;28;20033;-76
2022/12/31 11:42:59;;;;;;;9.60;5.68;;;11.60;99.90;;;;;;10400366;28;20068;-77
2022/12/31 11:48:03;;;;;;;10.70;5.90;;;11.70;99.90;;;;;;10398493;28;20518;-77
2022/12/31 11:53:24;;;;;;;11.38;7.00;;;11.80;99.90;;;;;;10396512;28;20292;-76
2022/12/31 11:58:28;;;;;;;8.77;5.70;;;12.00;99.90;;;;;;10399771;28;20125;-79
2022/12/31 12:03:28;;;;;;;10.60;5.88;;;12.10;99.90;;;;;;10392065;28;20033;-77
2022/12/31 12:08:31;;;;;;;10.13;5.50;;;12.10;99.90;;;;;;10386040;28;20051;-78
2022/12/31 12:13:33;;;;;;;19.75;10.63;;;12.20;99.90;;;;;;10398189;28;20132;-78
2022/12/31 12:18:35;;;;;;;10.60;4.93;;;12.20;99.90;;;;;;10392368;28;20071;-76
2022/12/31 12:23:36;;;;;;;13.13;6.07;;;12.20;99.90;;;;;;10390394;28;20079;-80
2022/12/31 12:28:43;;;;;;;7.57;4.63;;;12.20;99.90;;;;;;10396442;28;20014;-78
2022/12/31 12:33:45;;;;;;;8.65;5.03;;;12.20;99.90;;;;;;10385408;28;20678;-78
2022/12/31 12:38:46;;;;;;;8.80;5.18;;;12.10;99.90;;;;;;10392389;28;20037;-78
2022/12/31 12:43:47;;;;;;;11.45;5.82;;;12.10;99.90;;;;;;10400786;28;20037;-76
2022/12/31 12:48:53;;;;;;;21.40;11.00;;;12.00;99.90;;;;;;10394066;28;20029;-77
2022/12/31 12:54:20;;;;;;;16.30;8.55;;;12.00;99.90;;;;;;10399830;28;20029;-77
2022/12/31 12:59:48;;;;;;;16.55;9.05;;;11.90;99.90;;;;;;10396706;28;20399;-77
2022/12/31 13:05:20;;;;;;;14.23;7.57;;;11.90;99.90;;;;;;10396242;28;20044;-78
2022/12/31 13:10:41;;;;;;;58.47;27.17;;;11.80;99.90;;;;;;10390108;28;20392;-79
2022/12/31 13:16:15;;;;;;;24.95;11.40;;;11.80;99.90;;;;;;10395815;28;20071;-78
2022/12/31 13:21:31;;;;;;;18.92;9.85;;;11.80;99.90;;;;;;10398084;28;20042;-79
2022/12/31 13:27:01;;;;;;;12.88;6.00;;;11.90;99.90;;;;;;10397775;28;20029;-77
2022/12/31 13:32:06;;;;;;;27.55;14.40;;;11.80;99.90;;;;;;10389396;28;20057;-77
2022/12/31 13:37:23;;;;;;;13.55;6.82;;;11.80;99.90;;;;;;10413343;23;20509;-80
2022/12/31 13:42:35;;;;;;;20.77;10.15;;;11.80;99.90;;;;;;10447501;28;20139;-78
2022/12/31 13:47:50;;;;;;;29.17;13.13;;;11.70;99.90;;;;;;10446972;28;20029;-80
2022/12/31 13:53:09;;;;;;;25.35;9.63;;;11.60;99.90;;;;;;10440082;28;20751;-79
2022/12/31 13:58:37;;;;;;;20.40;9.25;;;11.50;99.90;;;;;;10439302;28;20094;-77
2022/12/31 14:03:46;;;;;;;32.08;14.45;;;11.50;99.90;;;;;;10440064;28;20057;-77
2022/12/31 14:08:46;;;;;;;22.52;10.88;;;11.50;99.90;;;;;;10449042;28;20052;-78
2022/12/31 14:14:02;;;;;;;35.15;14.88;;;11.40;99.90;;;;;;10448284;28;20151;-77
2022/12/31 14:19:16;;;;;;;34.07;16.43;;;11.30;99.90;;;;;;10446234;28;20075;-77
2022/12/31 14:24:48;;;;;;;20.63;9.77;;;11.30;99.90;;;;;;10447516;28;20121;-78
2022/12/31 14:30:00;;;;;;;21.67;12.40;;;11.20;99.90;;;;;;10444681;28;20037;-78
2022/12/31 14:35:22;;;;;;;21.45;9.93;;;11.20;99.90;;;;;;10420110;28;20041;-80
2022/12/31 14:40:44;;;;;;;22.45;10.68;;;11.10;99.90;;;;;;10439436;28;20052;-78
2022/12/31 14:46:09;;;;;;;20.30;10.93;;;11.00;99.90;;;;;;10432512;28;20071;-78
2022/12/31 14:51:11;;;;;;;29.02;14.20;;;11.00;99.90;;;;;;10440564;28;20091;-78
2022/12/31 14:56:28;;;;;;;21.88;10.70;;;11.00;99.90;;;;;;10434193;28;20079;-77
2022/12/31 15:01:29;;;;;;;34.00;13.95;;;11.00;99.90;;;;;;10436071;28;20369;-77
2022/12/31 15:07:06;;;;;;;28.48;11.95;;;11.00;99.90;;;;;;10439328;28;20033;-77
2022/12/31 15:12:49;;;;;;;19.08;10.40;;;11.00;99.90;;;;;;10444135;28;20040;-77
2022/12/31 15:17:52;;;;;;;22.95;10.55;;;11.00;99.90;;;;;;10424022;28;20496;-77
2022/12/31 15:22:53;;;;;;;25.23;12.30;;;10.90;99.90;;;;;;10444166;28;20056;-77
2022/12/31 15:27:57;;;;;;;30.52;14.55;;;11.00;99.90;;;;;;10440084;28;20033;-78
2022/12/31 15:33:02;;;;;;;17.15;9.32;;;11.00;99.90;;;;;;10430819;28;20473;-78
2022/12/31 15:38:14;;;;;;;21.75;10.93;;;11.10;99.90;;;;;;10421651;28;20052;-81
2022/12/31 15:43:24;;;;;;;16.88;8.70;;;11.10;99.90;;;;;;10418446;28;20040;-80
2022/12/31 15:48:41;;;;;;;14.45;8.65;;;11.10;99.90;;;;;;10412706;28;20510;-79
2022/12/31 15:53:50;;;;;;;17.15;8.43;;;11.10;99.90;;;;;;10440934;28;20037;-78
2022/12/31 15:58:57;;;;;;;14.63;8.05;;;11.20;99.90;;;;;;10414703;28;20033;-79
2022/12/31 16:04:03;;;;;;;23.77;10.02;;;11.20;99.90;;;;;;10413750;28;20045;-79
2022/12/31 16:09:07;;;;;;;;;;;11.20;99.90;;;;;;10415293;28;20513;-77
2022/12/31 16:14:17;;;;;;;24.02;10.88;;;11.30;99.90;;;;;;10442440;28;20494;-77
2022/12/31 16:19:33;;;;;;;18.98;9.85;;;11.40;99.90;;;;;;10439117;28;20455;-79
2022/12/31 16:24:35;;;;;;;15.93;8.93;;;11.30;99.90;;;;;;10441150;28;20025;-81
2022/12/31 16:29:40;;;;;;;19.48;10.57;;;11.30;99.90;;;;;;10442109;28;20057;-77
2022/12/31 16:34:41;;;;;;;16.40;7.97;;;11.40;99.90;;;;;;10440816;28;20025;-78
2022/12/31 16:40:16;;;;;;;18.80;9.38;;;11.40;99.90;;;;;;10440199;28;20067;-77
2022/12/31 16:45:35;;;;;;;16.30;9.63;;;11.40;99.90;;;;;;10445853;23;20053;-77
2022/12/31 16:50:36;;;;;;;14.40;7.88;;;11.40;99.90;;;;;;10400928;28;20029;-77
2022/12/31 16:55:37;;;;;;;22.90;10.93;;;11.40;99.90;;;;;;10400856;28;20076;-78
2022/12/31 17:00:39;;;;;;;22.73;9.85;;;11.50;99.90;;;;;;10401271;28;20116;-80
2022/12/31 17:05:56;;;;;;;40.63;16.98;;;11.50;99.90;;;;;;10400448;28;20095;-77
2022/12/31 17:10:57;;;;;;;20.70;9.50;;;11.60;99.90;;;;;;10401169;28;20373;-79
2022/12/31 17:15:59;;;;;;;37.47;15.05;;;11.60;99.90;;;;;;10400366;28;20034;-77
2022/12/31 17:21:08;;;;;;;27.25;12.40;;;11.70;99.90;;;;;;10400181;28;20602;-81
2022/12/31 17:26:12;;;;;;;168.70;65.25;;;11.70;99.90;;;;;;10392858;28;20156;-77
2022/12/31 17:31:35;;;;;;;74.97;30.17;;;11.70;99.90;;;;;;10399550;28;20396;-78
2022/12/31 17:36:36;;;;;;;109.07;42.60;;;11.70;99.90;;;;;;10399614;28;20030;-77
2022/12/31 17:41:37;;;;;;;96.88;36.25;;;11.70;99.90;;;;;;10409375;28;20029;-79
2022/12/31 17:46:39;;;;;;;122.75;45.97;;;11.70;99.90;;;;;;10408014;28;20057;-77
2022/12/31 17:51:40;;;;;;;89.05;34.13;;;11.60;99.90;;;;;;10407595;28;20783;-77
2022/12/31 17:56:41;;;;;;;142.23;57.42;;;11.70;99.90;;;;;;10407344;28;20492;-76
2022/12/31 18:01:41;;;;;;;84.22;34.38;;;11.60;99.90;;;;;;10407324;28;20029;-77
2022/12/31 18:06:43;;;;;;;94.28;37.28;;;11.50;99.90;;;;;;10407670;28;20029;-77
2022/12/31 18:11:44;;;;;;;67.55;24.38;;;11.60;99.90;;;;;;10405033;28;20125;-77
2022/12/31 18:16:44;;;;;;;56.13;23.40;;;11.50;99.90;;;;;;10404623;28;20354;-77
2022/12/31 18:21:45;;;;;;;33.25;15.50;;;11.50;99.90;;;;;;10406391;28;20025;-78
2022/12/31 18:26:46;;;;;;;40.60;17.98;;;11.50;99.90;;;;;;10405698;28;20035;-77
2022/12/31 18:31:48;;;;;;;30.15;15.23;;;11.50;99.90;;;;;;10406816;28;20032;-77
2022/12/31 18:36:48;;;;;;;25.13;13.05;;;11.50;99.90;;;;;;10419577;23;20053;-79
2022/12/31 18:41:49;;;;;;;30.38;14.85;;;11.50;99.90;;;;;;10406584;28;20529;-76
2022/12/31 18:46:49;;;;;;;22.20;12.65;;;11.50;99.90;;;;;;10406003;28;20025;-77
2022/12/31 18:51:53;;;;;;;23.85;13.05;;;11.50;99.90;;;;;;10403928;28;20033;-77
2022/12/31 18:56:53;;;;;;;22.88;13.07;;;11.50;99.90;;;;;;10405964;28;20065;-77
2022/12/31 19:01:54;;;;;;;22.35;12.70;;;11.50;99.90;;;;;;10405027;28;20121;-80
2022/12/31 19:06:55;;;;;;;32.15;15.65;;;11.50;99.90;;;;;;10405160;28;20088;-77
2022/12/31 19:11:55;;;;;;;26.17;15.02;;;11.50;99.90;;;;;;10403605;28;20040;-79
2022/12/31 19:16:58;;;;;;;30.73;15.90;;;11.50;99.90;;;;;;10385270;28;20406;-81
2022/12/31 19:21:59;;;;;;;31.65;17.95;;;11.50;99.90;;;;;;10372035;28;20037;-77
2022/12/31 19:27:00;;;;;;;31.98;16.63;;;11.50;99.90;;;;;;10357024;28;20037;-80
2022/12/31 19:32:01;;;;;;;25.00;13.52;;;11.50;99.90;;;;;;10355556;28;20089;-80
2022/12/31 19:37:01;;;;;;;20.63;11.65;;;11.50;99.90;;;;;;10388340;28;20524;-82
2022/12/31 19:42:02;;;;;;;25.13;13.43;;;11.60;99.90;;;;;;10390734;28;20156;-78
2022/12/31 19:47:02;;;;;;;26.20;13.52;;;11.60;99.90;;;;;;10403367;28;20083;-79
2022/12/31 19:52:03;;;;;;;21.67;12.57;;;11.50;99.90;;;;;;10385035;28;20042;-79
2022/12/31 19:57:03;;;;;;;22.15;13.07;;;11.60;99.90;;;;;;10358263;28;20121;-78
2022/12/31 20:02:04;;;;;;;26.90;14.05;;;11.60;99.90;;;;;;10372915;28;20052;-79
2022/12/31 20:07:05;;;;;;;19.90;11.35;;;11.60;99.90;;;;;;10391574;23;20057;-78
2022/12/31 20:12:05;;;;;;;23.02;11.50;;;11.60;99.90;;;;;;10402622;28;20063;-77
2022/12/31 20:17:06;;;;;;;22.85;12.00;;;11.60;99.90;;;;;;10372983;28;20100;-79
2022/12/31 20:22:07;;;;;;;25.10;11.90;;;11.70;99.90;;;;;;10392194;28;20053;-77
2022/12/31 20:27:07;;;;;;;24.63;10.05;;;11.60;99.90;;;;;;10397847;28;20037;-77
2022/12/31 20:32:08;;;;;;;16.27;8.43;;;11.70;99.90;;;;;;10395960;28;20110;-80
2022/12/31 20:37:09;;;;;;;22.42;10.82;;;11.70;99.90;;;;;;10398031;28;20045;-77
2022/12/31 20:42:09;;;;;;;23.38;10.73;;;11.80;99.90;;;;;;10400592;28;20458;-77
2022/12/31 20:47:11;;;;;;;12.68;6.80;;;11.90;99.90;;;;;;10399385;28;20049;-78
2022/12/31 20:52:12;;;;;;;15.27;8.48;;;11.90;99.90;;;;;;10375905;28;20033;-78
2022/12/31 20:57:12;;;;;;;12.38;6.72;;;12.00;99.90;;;;;;10391862;28;20124;-77
2022/12/31 21:02:14;;;;;;;12.93;6.80;;;12.10;99.90;;;;;;10349974;28;20025;-78
2022/12/31 21:07:15;;;;;;;14.07;7.32;;;12.20;99.90;;;;;;10380432;28;20148;-78
2022/12/31 21:17:34;;;;;;;14.52;7.45;;;12.10;99.90;;;;;;10347521;28;20050;-77
2022/12/31 21:22:35;;;;;;;17.35;8.27;;;12.10;99.90;;;;;;10398199;28;20026;-79
2022/12/31 21:27:36;;;;;;;10.13;6.03;;;12.00;99.90;;;;;;10382961;28;20033;-78
2022/12/31 21:32:37;;;;;;;11.52;6.90;;;12.00;99.90;;;;;;10381785;28;20038;-78
2022/12/31 21:37:37;;;;;;;13.27;6.80;;;11.90;99.90;;;;;;10395345;28;20438;-78
2022/12/31 21:42:38;;;;;;;13.45;8.05;;;11.90;99.90;;;;;;10366134;28;20059;-76
2022/12/31 21:52:57;;;;;;;13.98;7.97;;;11.90;99.90;;;;;;10375310;28;20140;-78
2022/12/31 21:57:58;;;;;;;13.80;7.60;;;11.90;99.90;;;;;;10372756;28;20393;-79
2022/12/31 22:08:19;;;;;;;13.30;7.65;;;11.90;99.90;;;;;;10382090;28;20061;-77
2022/12/31 22:13:20;;;;;;;15.07;8.32;;;11.90;99.90;;;;;;10390272;28;20025;-79
2022/12/31 22:18:21;;;;;;;13.77;8.30;;;11.80;99.90;;;;;;10394831;28;20033;-78
2022/12/31 22:23:22;;;;;;;14.70;8.32;;;11.80;99.90;;;;;;10390158;28;20034;-77
2022/12/31 22:28:22;;;;;;;15.50;8.38;;;11.70;99.90;;;;;;10383781;28;20029;-79
2022/12/31 22:33:23;;;;;;;13.55;8.02;;;11.70;99.90;;;;;;10399069;28;20496;-81
2022/12/31 22:38:25;;;;;;;15.57;9.13;;;11.60;99.90;;;;;;10400973;28;20112;-78
2022/12/31 22:43:26;;;;;;;14.15;8.60;;;11.60;99.90;;;;;;10405437;28;20037;-77
2022/12/31 22:48:26;;;;;;;16.55;8.27;;;11.50;99.90;;;;;;10384564;28;20429;-79
2022/12/31 22:53:27;;;;;;;16.92;9.10;;;11.40;99.90;;;;;;10386361;28;20119;-77
2022/12/31 22:58:27;;;;;;;18.27;9.20;;;11.40;99.90;;;;;;10379420;28;20045;-78
2022/12/31 23:03:28;;;;;;;27.92;13.85;;;11.30;99.90;;;;;;10375647;28;20033;-78
2022/12/31 23:08:28;;;;;;;22.35;11.90;;;11.30;99.90;;;;;;10390675;28;20041;-77
2022/12/31 23:24:13;;;;;;;30.25;18.73;;;11.20;99.90;;;;;;10351364;28;20032;-80
2022/12/31 23:29:14;;;;;;;28.58;16.92;;;11.30;99.90;;;;;;10403930;28;20033;-76
2022/12/31 23:34:14;;;;;;;31.33;18.55;;;11.30;99.90;;;;;;10391436;28;20065;-78
2022/12/31 23:39:15;;;;;;;30.52;18.48;;;11.30;99.90;;;;;;10383045;28;20044;-79
2022/12/31 23:44:16;;;;;;;30.67;17.80;;;11.20;99.90;;;;;;10392237;28;20037;-77
2022/12/31 23:49:16;;;;;;;35.47;21.13;;;11.20;99.90;;;;;;10374683;28;20464;-79
2022/12/31 23:54:17;;;;;;;36.20;22.00;;;11.20;99.90;;;;;;10389705;28;20034;-77
2022/12/31 23:59:17;;;;;;;43.17;24.65;;;11.20;99.90;;;;;;10372166;28;20041;-77
